Tortilla Flat, Arizona
Current Conditions -  °F | °C
As of 10:47 AM on Friday 19 Dec 2014 (Local Time) from KIWA Reporting Station
Few Clouds Few Clouds  
Wind Chill: 52°   Ceiling: Unl
Heat Index: 52°   Visibility: 35mi
Dew Point: 45°   Wind: 5mph
Humidity: 76%   Direction: 130°SE
Pressure: 30.27"   Gusts: NA
Location:  33.53°N, 111.39°W
Report Text: KIWA 191747Z 13004KT 35SM FEW250 11/07 A3027
Loading
Personal Weather Stations






























Interactive Weather Map New forecast layout! Learn more

10-Day Weather Forecast

Advertisements
Track Severe Weather on mobile